sensor_id;sensor_type;location;lat;lon;timestamp;P1;durP1;ratioP1;P2;durP2;ratioP2
47669;SDS011;33408;52.062;11.722;2023-11-21T00:02:06;16.40;;;9.25;;
47669;SDS011;33408;52.062;11.722;2023-11-21T00:04:33;19.55;;;9.90;;
47669;SDS011;33408;52.062;11.722;2023-11-21T00:07:01;16.33;;;9.35;;
47669;SDS011;33408;52.062;11.722;2023-11-21T00:09:27;14.02;;;9.68;;
47669;SDS011;33408;52.062;11.722;2023-11-21T00:11:54;19.77;;;9.68;;
47669;SDS011;33408;52.062;11.722;2023-11-21T00:14:21;22.30;;;9.50;;
47669;SDS011;33408;52.062;11.722;2023-11-21T00:16:47;13.35;;;8.60;;
47669;SDS011;33408;52.062;11.722;2023-11-21T00:19:14;20.17;;;10.13;;
47669;SDS011;33408;52.062;11.722;2023-11-21T00:21:41;22.02;;;10.05;;
47669;SDS011;33408;52.062;11.722;2023-11-21T00:24:10;16.30;;;9.27;;
47669;SDS011;33408;52.062;11.722;2023-11-21T00:26:38;20.45;;;9.55;;
47669;SDS011;33408;52.062;11.722;2023-11-21T00:29:05;14.68;;;9.98;;
47669;SDS011;33408;52.062;11.722;2023-11-21T00:31:33;15.77;;;8.70;;
47669;SDS011;33408;52.062;11.722;2023-11-21T00:34:01;19.15;;;9.20;;
47669;SDS011;33408;52.062;11.722;2023-11-21T00:36:28;18.00;;;9.05;;
47669;SDS011;33408;52.062;11.722;2023-11-21T00:38:55;19.70;;;9.63;;
47669;SDS011;33408;52.062;11.722;2023-11-21T00:41:23;21.13;;;10.00;;
47669;SDS011;33408;52.062;11.722;2023-11-21T00:43:52;21.02;;;9.73;;
47669;SDS011;33408;52.062;11.722;2023-11-21T00:46:19;21.27;;;8.85;;
47669;SDS011;33408;52.062;11.722;2023-11-21T00:48:46;16.67;;;10.23;;
47669;SDS011;33408;52.062;11.722;2023-11-21T00:51:12;22.48;;;9.98;;
47669;SDS011;33408;52.062;11.722;2023-11-21T00:53:39;20.45;;;9.70;;
47669;SDS011;33408;52.062;11.722;2023-11-21T00:56:06;25.83;;;9.95;;
47669;SDS011;33408;52.062;11.722;2023-11-21T00:58:35;21.17;;;10.15;;
47669;SDS011;33408;52.062;11.722;2023-11-21T01:01:01;20.00;;;10.55;;
47669;SDS011;33408;52.062;11.722;2023-11-21T01:03:28;20.75;;;11.55;;
47669;SDS011;33408;52.062;11.722;2023-11-21T01:05:55;20.08;;;9.35;;
47669;SDS011;33408;52.062;11.722;2023-11-21T01:08:22;20.90;;;10.23;;
47669;SDS011;33408;52.062;11.722;2023-11-21T01:10:49;17.05;;;11.18;;
47669;SDS011;33408;52.062;11.722;2023-11-21T01:13:15;22.70;;;10.95;;
47669;SDS011;33408;52.062;11.722;2023-11-21T01:15:43;30.02;;;11.30;;
47669;SDS011;33408;52.062;11.722;2023-11-21T01:18:10;18.35;;;11.05;;
47669;SDS011;33408;52.062;11.722;2023-11-21T01:20:37;18.23;;;11.27;;
47669;SDS011;33408;52.062;11.722;2023-11-21T01:23:03;25.67;;;12.70;;
47669;SDS011;33408;52.062;11.722;2023-11-21T01:25:30;23.40;;;10.60;;
47669;SDS011;33408;52.062;11.722;2023-11-21T01:27:57;22.52;;;11.80;;
47669;SDS011;33408;52.062;11.722;2023-11-21T01:30:23;17.73;;;11.30;;
47669;SDS011;33408;52.062;11.722;2023-11-21T01:32:52;22.90;;;11.27;;
47669;SDS011;33408;52.062;11.722;2023-11-21T01:35:18;25.98;;;12.13;;
47669;SDS011;33408;52.062;11.722;2023-11-21T01:37:45;20.90;;;12.18;;
47669;SDS011;33408;52.062;11.722;2023-11-21T01:40:13;25.63;;;12.15;;
47669;SDS011;33408;52.062;11.722;2023-11-21T01:42:40;22.05;;;11.38;;
47669;SDS011;33408;52.062;11.722;2023-11-21T01:45:07;22.05;;;12.48;;
47669;SDS011;33408;52.062;11.722;2023-11-21T01:47:34;22.60;;;11.40;;
47669;SDS011;33408;52.062;11.722;2023-11-21T01:50:04;22.45;;;11.90;;
47669;SDS011;33408;52.062;11.722;2023-11-21T01:52:33;18.40;;;11.25;;
47669;SDS011;33408;52.062;11.722;2023-11-21T01:55:01;24.05;;;11.15;;
47669;SDS011;33408;52.062;11.722;2023-11-21T01:57:29;25.92;;;12.68;;
47669;SDS011;33408;52.062;11.722;2023-11-21T01:59:56;23.08;;;11.80;;
47669;SDS011;33408;52.062;11.722;2023-11-21T02:02:36;21.45;;;10.02;;
47669;SDS011;33408;52.062;11.722;2023-11-21T02:05:04;21.70;;;10.70;;
47669;SDS011;33408;52.062;11.722;2023-11-21T02:07:33;32.38;;;11.15;;
47669;SDS011;33408;52.062;11.722;2023-11-21T02:10:01;24.10;;;12.20;;
47669;SDS011;33408;52.062;11.722;2023-11-21T02:12:29;20.10;;;10.98;;
47669;SDS011;33408;52.062;11.722;2023-11-21T02:14:56;26.48;;;12.07;;
47669;SDS011;33408;52.062;11.722;2023-11-21T02:17:22;24.85;;;11.13;;
47669;SDS011;33408;52.062;11.722;2023-11-21T02:19:49;23.00;;;10.93;;
47669;SDS011;33408;52.062;11.722;2023-11-21T02:22:18;23.33;;;10.70;;
47669;SDS011;33408;52.062;11.722;2023-11-21T02:24:46;22.10;;;11.90;;
47669;SDS011;33408;52.062;11.722;2023-11-21T02:27:13;24.80;;;12.07;;
47669;SDS011;33408;52.062;11.722;2023-11-21T02:29:45;21.38;;;10.38;;
47669;SDS011;33408;52.062;11.722;2023-11-21T02:32:12;19.15;;;11.15;;
47669;SDS011;33408;52.062;11.722;2023-11-21T02:34:39;28.02;;;12.73;;
47669;SDS011;33408;52.062;11.722;2023-11-21T02:37:06;20.85;;;11.93;;
47669;SDS011;33408;52.062;11.722;2023-11-21T02:39:32;21.48;;;11.85;;
47669;SDS011;33408;52.062;11.722;2023-11-21T02:42:00;21.27;;;11.80;;
47669;SDS011;33408;52.062;11.722;2023-11-21T02:44:27;21.65;;;11.77;;
47669;SDS011;33408;52.062;11.722;2023-11-21T02:46:54;22.95;;;12.35;;
47669;SDS011;33408;52.062;11.722;2023-11-21T02:49:23;19.25;;;11.40;;
47669;SDS011;33408;52.062;11.722;2023-11-21T02:51:53;22.40;;;12.68;;
47669;SDS011;33408;52.062;11.722;2023-11-21T02:54:19;33.60;;;13.93;;
47669;SDS011;33408;52.062;11.722;2023-11-21T02:56:49;26.75;;;14.18;;
47669;SDS011;33408;52.062;11.722;2023-11-21T02:59:17;28.00;;;13.60;;
47669;SDS011;33408;52.062;11.722;2023-11-21T03:01:44;26.33;;;13.88;;
47669;SDS011;33408;52.062;11.722;2023-11-21T03:04:11;24.00;;;13.85;;
47669;SDS011;33408;52.062;11.722;2023-11-21T03:06:43;29.75;;;15.05;;
47669;SDS011;33408;52.062;11.722;2023-11-21T03:09:09;27.95;;;15.02;;
47669;SDS011;33408;52.062;11.722;2023-11-21T03:11:37;29.55;;;15.45;;
47669;SDS011;33408;52.062;11.722;2023-11-21T03:14:03;34.10;;;15.82;;
47669;SDS011;33408;52.062;11.722;2023-11-21T03:16:31;28.95;;;16.20;;
47669;SDS011;33408;52.062;11.722;2023-11-21T03:18:58;29.23;;;15.55;;
47669;SDS011;33408;52.062;11.722;2023-11-21T03:21:25;29.88;;;16.73;;
47669;SDS011;33408;52.062;11.722;2023-11-21T03:23:52;34.25;;;16.90;;
47669;SDS011;33408;52.062;11.722;2023-11-21T03:26:19;31.05;;;16.30;;
47669;SDS011;33408;52.062;11.722;2023-11-21T03:28:45;31.73;;;17.10;;
47669;SDS011;33408;52.062;11.722;2023-11-21T03:31:12;28.60;;;16.45;;
47669;SDS011;33408;52.062;11.722;2023-11-21T03:33:40;31.08;;;15.88;;
47669;SDS011;33408;52.062;11.722;2023-11-21T03:36:07;33.38;;;16.83;;
47669;SDS011;33408;52.062;11.722;2023-11-21T03:38:34;29.38;;;16.60;;
47669;SDS011;33408;52.062;11.722;2023-11-21T03:41:01;37.90;;;17.58;;
47669;SDS011;33408;52.062;11.722;2023-11-21T03:43:28;34.55;;;16.73;;
47669;SDS011;33408;52.062;11.722;2023-11-21T03:45:55;29.13;;;17.73;;
47669;SDS011;33408;52.062;11.722;2023-11-21T03:48:21;33.33;;;17.75;;
47669;SDS011;33408;52.062;11.722;2023-11-21T03:50:49;31.17;;;17.27;;
47669;SDS011;33408;52.062;11.722;2023-11-21T03:53:16;37.92;;;18.65;;
47669;SDS011;33408;52.062;11.722;2023-11-21T03:55:43;28.85;;;18.02;;
47669;SDS011;33408;52.062;11.722;2023-11-21T03:58:09;36.15;;;16.23;;
47669;SDS011;33408;52.062;11.722;2023-11-21T04:00:36;31.08;;;17.00;;
47669;SDS011;33408;52.062;11.722;2023-11-21T04:03:03;33.63;;;17.35;;
47669;SDS011;33408;52.062;11.722;2023-11-21T04:05:30;33.35;;;15.68;;
47669;SDS011;33408;52.062;11.722;2023-11-21T04:07:58;33.10;;;17.10;;
47669;SDS011;33408;52.062;11.722;2023-11-21T04:10:25;36.78;;;18.02;;
47669;SDS011;33408;52.062;11.722;2023-11-21T04:12:51;29.25;;;18.60;;
47669;SDS011;33408;52.062;11.722;2023-11-21T04:15:18;29.27;;;16.02;;
47669;SDS011;33408;52.062;11.722;2023-11-21T04:17:45;17.75;;;10.48;;
47669;SDS011;33408;52.062;11.722;2023-11-21T04:20:11;11.63;;;6.93;;
47669;SDS011;33408;52.062;11.722;2023-11-21T04:22:38;9.68;;;6.10;;
47669;SDS011;33408;52.062;11.722;2023-11-21T04:25:10;10.63;;;6.72;;
47669;SDS011;33408;52.062;11.722;2023-11-21T04:27:38;10.95;;;6.13;;
47669;SDS011;33408;52.062;11.722;2023-11-21T04:30:06;11.90;;;7.15;;
47669;SDS011;33408;52.062;11.722;2023-11-21T04:32:34;14.13;;;7.80;;
47669;SDS011;33408;52.062;11.722;2023-11-21T04:35:01;10.93;;;8.02;;
47669;SDS011;33408;52.062;11.722;2023-11-21T04:37:29;11.15;;;7.18;;
47669;SDS011;33408;52.062;11.722;2023-11-21T04:39:55;10.93;;;7.53;;
47669;SDS011;33408;52.062;11.722;2023-11-21T04:42:23;10.43;;;7.30;;
47669;SDS011;33408;52.062;11.722;2023-11-21T04:44:50;12.68;;;7.50;;
47669;SDS011;33408;52.062;11.722;2023-11-21T04:47:17;10.50;;;7.20;;
47669;SDS011;33408;52.062;11.722;2023-11-21T04:49:45;9.00;;;6.55;;
47669;SDS011;33408;52.062;11.722;2023-11-21T04:52:13;11.15;;;7.00;;
47669;SDS011;33408;52.062;11.722;2023-11-21T04:54:39;12.85;;;7.40;;
47669;SDS011;33408;52.062;11.722;2023-11-21T04:57:06;11.43;;;7.93;;
47669;SDS011;33408;52.062;11.722;2023-11-21T04:59:34;11.57;;;7.45;;
47669;SDS011;33408;52.062;11.722;2023-11-21T05:02:01;11.52;;;7.45;;
47669;SDS011;33408;52.062;11.722;2023-11-21T05:04:28;12.63;;;7.95;;
47669;SDS011;33408;52.062;11.722;2023-11-21T05:06:54;10.95;;;7.85;;
47669;SDS011;33408;52.062;11.722;2023-11-21T05:09:21;12.60;;;8.85;;
47669;SDS011;33408;52.062;11.722;2023-11-21T05:11:48;12.05;;;8.35;;
47669;SDS011;33408;52.062;11.722;2023-11-21T05:14:15;14.73;;;10.40;;
47669;SDS011;33408;52.062;11.722;2023-11-21T05:16:45;12.25;;;9.85;;
47669;SDS011;33408;52.062;11.722;2023-11-21T05:19:12;14.50;;;9.82;;
47669;SDS011;33408;52.062;11.722;2023-11-21T05:21:38;13.25;;;9.43;;
47669;SDS011;33408;52.062;11.722;2023-11-21T05:24:05;16.75;;;10.68;;
47669;SDS011;33408;52.062;11.722;2023-11-21T05:26:32;13.68;;;9.73;;
47669;SDS011;33408;52.062;11.722;2023-11-21T05:28:59;15.50;;;10.52;;
47669;SDS011;33408;52.062;11.722;2023-11-21T05:31:25;16.23;;;10.25;;
47669;SDS011;33408;52.062;11.722;2023-11-21T05:33:54;15.93;;;11.07;;
47669;SDS011;33408;52.062;11.722;2023-11-21T05:36:22;16.85;;;10.90;;
47669;SDS011;33408;52.062;11.722;2023-11-21T05:38:48;18.05;;;11.55;;
47669;SDS011;33408;52.062;11.722;2023-11-21T05:41:15;15.18;;;10.65;;
47669;SDS011;33408;52.062;11.722;2023-11-21T05:43:42;17.92;;;11.32;;
47669;SDS011;33408;52.062;11.722;2023-11-21T05:46:09;16.88;;;11.43;;
47669;SDS011;33408;52.062;11.722;2023-11-21T05:48:35;19.75;;;11.20;;
47669;SDS011;33408;52.062;11.722;2023-11-21T05:51:05;17.42;;;11.75;;
47669;SDS011;33408;52.062;11.722;2023-11-21T05:53:32;19.33;;;13.35;;
47669;SDS011;33408;52.062;11.722;2023-11-21T05:55:58;18.83;;;13.48;;
47669;SDS011;33408;52.062;11.722;2023-11-21T05:58:25;22.33;;;14.05;;
47669;SDS011;33408;52.062;11.722;2023-11-21T06:00:52;24.08;;;14.43;;
47669;SDS011;33408;52.062;11.722;2023-11-21T06:03:18;22.73;;;15.02;;
47669;SDS011;33408;52.062;11.722;2023-11-21T06:05:45;21.67;;;15.88;;
47669;SDS011;33408;52.062;11.722;2023-11-21T06:08:13;25.17;;;17.20;;
47669;SDS011;33408;52.062;11.722;2023-11-21T06:10:41;20.73;;;14.88;;
47669;SDS011;33408;52.062;11.722;2023-11-21T06:13:09;22.52;;;15.35;;
47669;SDS011;33408;52.062;11.722;2023-11-21T06:15:35;20.92;;;14.68;;
47669;SDS011;33408;52.062;11.722;2023-11-21T06:18:02;19.27;;;14.20;;
47669;SDS011;33408;52.062;11.722;2023-11-21T06:20:30;22.38;;;14.50;;
47669;SDS011;33408;52.062;11.722;2023-11-21T06:22:57;16.05;;;11.15;;
47669;SDS011;33408;52.062;11.722;2023-11-21T06:25:25;21.00;;;12.68;;
47669;SDS011;33408;52.062;11.722;2023-11-21T06:27:52;18.88;;;13.52;;
47669;SDS011;33408;52.062;11.722;2023-11-21T06:30:18;17.13;;;12.45;;
47669;SDS011;33408;52.062;11.722;2023-11-21T06:32:46;18.58;;;13.63;;
47669;SDS011;33408;52.062;11.722;2023-11-21T06:35:13;16.83;;;12.13;;
47669;SDS011;33408;52.062;11.722;2023-11-21T06:37:40;19.50;;;12.30;;
47669;SDS011;33408;52.062;11.722;2023-11-21T06:40:12;18.48;;;12.88;;
47669;SDS011;33408;52.062;11.722;2023-11-21T06:42:41;16.90;;;13.13;;
47669;SDS011;33408;52.062;11.722;2023-11-21T06:45:09;18.35;;;13.52;;
47669;SDS011;33408;52.062;11.722;2023-11-21T06:47:36;20.08;;;14.30;;
47669;SDS011;33408;52.062;11.722;2023-11-21T06:50:03;22.13;;;14.82;;
47669;SDS011;33408;52.062;11.722;2023-11-21T06:52:31;19.50;;;15.32;;
47669;SDS011;33408;52.062;11.722;2023-11-21T06:54:58;22.27;;;15.25;;
47669;SDS011;33408;52.062;11.722;2023-11-21T06:57:25;25.50;;;16.30;;
47669;SDS011;33408;52.062;11.722;2023-11-21T06:59:53;26.85;;;17.60;;
47669;SDS011;33408;52.062;11.722;2023-11-21T07:02:22;25.80;;;18.23;;
47669;SDS011;33408;52.062;11.722;2023-11-21T07:04:49;25.90;;;19.55;;
47669;SDS011;33408;52.062;11.722;2023-11-21T07:07:15;27.85;;;18.38;;
47669;SDS011;33408;52.062;11.722;2023-11-21T07:09:42;29.00;;;19.25;;
47669;SDS011;33408;52.062;11.722;2023-11-21T07:12:09;27.88;;;20.10;;
47669;SDS011;33408;52.062;11.722;2023-11-21T07:14:36;27.67;;;18.75;;
47669;SDS011;33408;52.062;11.722;2023-11-21T07:17:09;30.27;;;19.38;;
47669;SDS011;33408;52.062;11.722;2023-11-21T07:19:37;29.23;;;20.10;;
47669;SDS011;33408;52.062;11.722;2023-11-21T07:22:03;31.85;;;21.85;;
47669;SDS011;33408;52.062;11.722;2023-11-21T07:24:31;32.33;;;21.13;;
47669;SDS011;33408;52.062;11.722;2023-11-21T07:26:57;34.08;;;21.45;;
47669;SDS011;33408;52.062;11.722;2023-11-21T07:29:24;32.60;;;20.05;;
47669;SDS011;33408;52.062;11.722;2023-11-21T07:31:51;31.73;;;21.10;;
47669;SDS011;33408;52.062;11.722;2023-11-21T07:34:19;33.15;;;21.63;;
47669;SDS011;33408;52.062;11.722;2023-11-21T07:36:46;34.78;;;21.98;;
47669;SDS011;33408;52.062;11.722;2023-11-21T07:39:13;30.40;;;21.20;;
47669;SDS011;33408;52.062;11.722;2023-11-21T07:41:41;28.27;;;19.65;;
47669;SDS011;33408;52.062;11.722;2023-11-21T07:44:14;27.50;;;18.75;;
47669;SDS011;33408;52.062;11.722;2023-11-21T07:46:42;34.30;;;21.48;;
47669;SDS011;33408;52.062;11.722;2023-11-21T07:49:09;27.75;;;20.42;;
47669;SDS011;33408;52.062;11.722;2023-11-21T07:51:37;28.58;;;20.85;;
47669;SDS011;33408;52.062;11.722;2023-11-21T07:54:03;30.33;;;20.92;;
47669;SDS011;33408;52.062;11.722;2023-11-21T07:56:30;26.55;;;19.55;;
47669;SDS011;33408;52.062;11.722;2023-11-21T07:58:57;30.33;;;21.15;;
47669;SDS011;33408;52.062;11.722;2023-11-21T08:01:24;27.80;;;20.23;;
47669;SDS011;33408;52.062;11.722;2023-11-21T08:03:50;29.23;;;19.75;;
47669;SDS011;33408;52.062;11.722;2023-11-21T08:06:17;25.08;;;19.27;;
47669;SDS011;33408;52.062;11.722;2023-11-21T08:08:45;27.10;;;19.35;;
47669;SDS011;33408;52.062;11.722;2023-11-21T08:11:12;26.50;;;19.50;;
47669;SDS011;33408;52.062;11.722;2023-11-21T08:13:39;26.00;;;20.38;;
47669;SDS011;33408;52.062;11.722;2023-11-21T08:16:06;26.50;;;19.17;;
47669;SDS011;33408;52.062;11.722;2023-11-21T08:18:33;25.65;;;17.98;;
47669;SDS011;33408;52.062;11.722;2023-11-21T08:21:00;26.52;;;19.40;;
47669;SDS011;33408;52.062;11.722;2023-11-21T08:23:28;28.02;;;20.30;;
47669;SDS011;33408;52.062;11.722;2023-11-21T08:25:56;28.38;;;20.55;;
47669;SDS011;33408;52.062;11.722;2023-11-21T08:28:23;24.58;;;19.08;;
47669;SDS011;33408;52.062;11.722;2023-11-21T08:30:50;26.50;;;21.08;;
47669;SDS011;33408;52.062;11.722;2023-11-21T08:33:17;25.52;;;20.67;;
47669;SDS011;33408;52.062;11.722;2023-11-21T08:35:44;23.42;;;18.05;;
47669;SDS011;33408;52.062;11.722;2023-11-21T08:38:11;24.35;;;19.08;;
47669;SDS011;33408;52.062;11.722;2023-11-21T08:40:38;25.00;;;18.42;;
47669;SDS011;33408;52.062;11.722;2023-11-21T08:43:06;20.20;;;16.80;;
47669;SDS011;33408;52.062;11.722;2023-11-21T08:45:33;21.85;;;17.60;;
47669;SDS011;33408;52.062;11.722;2023-11-21T08:48:00;20.60;;;17.27;;
47669;SDS011;33408;52.062;11.722;2023-11-21T08:50:26;24.65;;;17.90;;
47669;SDS011;33408;52.062;11.722;2023-11-21T08:52:53;19.02;;;14.75;;
47669;SDS011;33408;52.062;11.722;2023-11-21T08:55:20;18.95;;;15.15;;
47669;SDS011;33408;52.062;11.722;2023-11-21T08:57:47;18.13;;;14.40;;
47669;SDS011;33408;52.062;11.722;2023-11-21T09:00:16;15.52;;;11.65;;
47669;SDS011;33408;52.062;11.722;2023-11-21T09:02:43;17.50;;;13.82;;
47669;SDS011;33408;52.062;11.722;2023-11-21T09:05:11;20.30;;;13.93;;
47669;SDS011;33408;52.062;11.722;2023-11-21T09:07:40;15.80;;;12.73;;
47669;SDS011;33408;52.062;11.722;2023-11-21T09:10:08;15.10;;;11.27;;
47669;SDS011;33408;52.062;11.722;2023-11-21T09:12:35;15.93;;;11.80;;
47669;SDS011;33408;52.062;11.722;2023-11-21T09:15:03;14.65;;;11.07;;
47669;SDS011;33408;52.062;11.722;2023-11-21T09:17:32;19.58;;;11.90;;
47669;SDS011;33408;52.062;11.722;2023-11-21T09:20:00;16.50;;;12.20;;
47669;SDS011;33408;52.062;11.722;2023-11-21T09:22:28;14.13;;;11.68;;
47669;SDS011;33408;52.062;11.722;2023-11-21T09:24:56;16.23;;;13.02;;
47669;SDS011;33408;52.062;11.722;2023-11-21T09:27:24;14.57;;;10.70;;
47669;SDS011;33408;52.062;11.722;2023-11-21T09:29:51;15.73;;;13.43;;
47669;SDS011;33408;52.062;11.722;2023-11-21T09:34:47;16.17;;;13.00;;
47669;SDS011;33408;52.062;11.722;2023-11-21T09:37:14;13.52;;;10.93;;
47669;SDS011;33408;52.062;11.722;2023-11-21T09:39:41;14.68;;;11.73;;
47669;SDS011;33408;52.062;11.722;2023-11-21T09:42:08;17.05;;;11.77;;
47669;SDS011;33408;52.062;11.722;2023-11-21T09:44:41;16.17;;;11.55;;
47669;SDS011;33408;52.062;11.722;2023-11-21T09:47:14;13.63;;;10.43;;
47669;SDS011;33408;52.062;11.722;2023-11-21T09:49:42;16.85;;;11.63;;
47669;SDS011;33408;52.062;11.722;2023-11-21T09:52:18;14.02;;;11.27;;
47669;SDS011;33408;52.062;11.722;2023-11-21T09:54:50;15.52;;;12.02;;
47669;SDS011;33408;52.062;11.722;2023-11-21T09:57:18;13.63;;;9.55;;
47669;SDS011;33408;52.062;11.722;2023-11-21T09:59:46;12.85;;;10.40;;
47669;SDS011;33408;52.062;11.722;2023-11-21T10:02:15;17.42;;;11.70;;
47669;SDS011;33408;52.062;11.722;2023-11-21T10:04:43;14.68;;;10.82;;
47669;SDS011;33408;52.062;11.722;2023-11-21T10:07:12;14.75;;;10.68;;
47669;SDS011;33408;52.062;11.722;2023-11-21T10:09:43;15.32;;;11.18;;
47669;SDS011;33408;52.062;11.722;2023-11-21T10:12:11;13.65;;;10.23;;
47669;SDS011;33408;52.062;11.722;2023-11-21T10:14:40;15.45;;;12.40;;
47669;SDS011;33408;52.062;11.722;2023-11-21T10:17:10;15.32;;;11.05;;
47669;SDS011;33408;52.062;11.722;2023-11-21T10:19:38;14.32;;;11.45;;
47669;SDS011;33408;52.062;11.722;2023-11-21T10:22:06;13.73;;;10.60;;
47669;SDS011;33408;52.062;11.722;2023-11-21T10:24:36;14.32;;;11.00;;
47669;SDS011;33408;52.062;11.722;2023-11-21T10:27:03;14.75;;;9.55;;
47669;SDS011;33408;52.062;11.722;2023-11-21T10:29:30;16.00;;;10.98;;
47669;SDS011;33408;52.062;11.722;2023-11-21T10:32:01;13.98;;;10.80;;
47669;SDS011;33408;52.062;11.722;2023-11-21T10:34:28;16.23;;;10.88;;
47669;SDS011;33408;52.062;11.722;2023-11-21T10:36:55;12.70;;;10.25;;
47669;SDS011;33408;52.062;11.722;2023-11-21T10:39:23;13.77;;;10.15;;
47669;SDS011;33408;52.062;11.722;2023-11-21T10:41:54;12.27;;;9.20;;
47669;SDS011;33408;52.062;11.722;2023-11-21T10:44:21;15.70;;;11.82;;
47669;SDS011;33408;52.062;11.722;2023-11-21T10:46:49;14.35;;;9.38;;
47669;SDS011;33408;52.062;11.722;2023-11-21T10:49:20;12.00;;;8.77;;
47669;SDS011;33408;52.062;11.722;2023-11-21T10:51:49;12.48;;;8.98;;
47669;SDS011;33408;52.062;11.722;2023-11-21T10:54:20;12.75;;;8.90;;
47669;SDS011;33408;52.062;11.722;2023-11-21T10:56:48;14.38;;;8.82;;
47669;SDS011;33408;52.062;11.722;2023-11-21T10:59:17;10.98;;;8.50;;
47669;SDS011;33408;52.062;11.722;2023-11-21T11:01:46;12.82;;;9.02;;
47669;SDS011;33408;52.062;11.722;2023-11-21T11:04:16;12.68;;;8.80;;
47669;SDS011;33408;52.062;11.722;2023-11-21T11:06:45;10.93;;;8.38;;
47669;SDS011;33408;52.062;11.722;2023-11-21T11:09:17;12.90;;;9.48;;
47669;SDS011;33408;52.062;11.722;2023-11-21T11:11:44;15.27;;;9.75;;
47669;SDS011;33408;52.062;11.722;2023-11-21T11:14:11;12.38;;;8.93;;
47669;SDS011;33408;52.062;11.722;2023-11-21T11:16:40;12.50;;;8.30;;
47669;SDS011;33408;52.062;11.722;2023-11-21T11:19:08;12.63;;;8.43;;
47669;SDS011;33408;52.062;11.722;2023-11-21T11:21:38;12.38;;;9.20;;
47669;SDS011;33408;52.062;11.722;2023-11-21T11:24:27;12.27;;;8.85;;
47669;SDS011;33408;52.062;11.722;2023-11-21T11:27:11;18.17;;;10.13;;
47669;SDS011;33408;52.062;11.722;2023-11-21T11:29:54;10.93;;;8.40;;
47669;SDS011;33408;52.062;11.722;2023-11-21T11:32:33;12.18;;;9.20;;
47669;SDS011;33408;52.062;11.722;2023-11-21T11:35:10;12.13;;;9.25;;
47669;SDS011;33408;52.062;11.722;2023-11-21T11:37:42;13.27;;;10.38;;
47669;SDS011;33408;52.062;11.722;2023-11-21T11:40:10;15.40;;;12.57;;
47669;SDS011;33408;52.062;11.722;2023-11-21T11:42:37;15.65;;;11.45;;
47669;SDS011;33408;52.062;11.722;2023-11-21T11:45:09;14.00;;;10.45;;
47669;SDS011;33408;52.062;11.722;2023-11-21T11:47:45;14.52;;;9.50;;
47669;SDS011;33408;52.062;11.722;2023-11-21T11:50:14;14.32;;;11.05;;
47669;SDS011;33408;52.062;11.722;2023-11-21T11:52:42;14.10;;;11.50;;
47669;SDS011;33408;52.062;11.722;2023-11-21T11:55:10;14.15;;;10.52;;
47669;SDS011;33408;52.062;11.722;2023-11-21T11:57:41;16.35;;;10.07;;
47669;SDS011;33408;52.062;11.722;2023-11-21T12:00:09;15.88;;;11.32;;
47669;SDS011;33408;52.062;11.722;2023-11-21T12:02:46;17.13;;;12.20;;
47669;SDS011;33408;52.062;11.722;2023-11-21T12:05:14;14.13;;;11.02;;
47669;SDS011;33408;52.062;11.722;2023-11-21T12:07:43;14.88;;;11.57;;
47669;SDS011;33408;52.062;11.722;2023-11-21T12:10:15;17.17;;;11.23;;
47669;SDS011;33408;52.062;11.722;2023-11-21T12:12:43;14.05;;;10.90;;
47669;SDS011;33408;52.062;11.722;2023-11-21T12:15:11;14.65;;;11.18;;
47669;SDS011;33408;52.062;11.722;2023-11-21T12:17:39;15.30;;;11.05;;
47669;SDS011;33408;52.062;11.722;2023-11-21T12:20:08;14.25;;;10.38;;
47669;SDS011;33408;52.062;11.722;2023-11-21T12:22:41;13.73;;;10.10;;
47669;SDS011;33408;52.062;11.722;2023-11-21T12:25:09;14.75;;;10.43;;
47669;SDS011;33408;52.062;11.722;2023-11-21T12:27:40;13.48;;;9.82;;
47669;SDS011;33408;52.062;11.722;2023-11-21T12:30:07;13.80;;;9.55;;
47669;SDS011;33408;52.062;11.722;2023-11-21T12:32:38;13.30;;;9.75;;
47669;SDS011;33408;52.062;11.722;2023-11-21T12:35:05;12.13;;;8.35;;
47669;SDS011;33408;52.062;11.722;2023-11-21T12:37:34;12.98;;;9.85;;
47669;SDS011;33408;52.062;11.722;2023-11-21T12:40:01;12.98;;;9.02;;
47669;SDS011;33408;52.062;11.722;2023-11-21T12:42:27;15.20;;;11.35;;
47669;SDS011;33408;52.062;11.722;2023-11-21T12:45:08;15.88;;;11.63;;
47669;SDS011;33408;52.062;11.722;2023-11-21T12:47:40;15.90;;;10.30;;
47669;SDS011;33408;52.062;11.722;2023-11-21T12:50:08;15.73;;;10.82;;
47669;SDS011;33408;52.062;11.722;2023-11-21T12:52:41;14.93;;;10.57;;
47669;SDS011;33408;52.062;11.722;2023-11-21T12:55:13;14.07;;;9.35;;
47669;SDS011;33408;52.062;11.722;2023-11-21T12:57:42;14.23;;;10.88;;
47669;SDS011;33408;52.062;11.722;2023-11-21T13:00:10;12.07;;;8.90;;
47669;SDS011;33408;52.062;11.722;2023-11-21T13:02:52;12.47;;;8.67;;
47669;SDS011;33408;52.062;11.722;2023-11-21T13:05:28;12.68;;;9.57;;
47669;SDS011;33408;52.062;11.722;2023-11-21T13:07:58;11.82;;;9.05;;
47669;SDS011;33408;52.062;11.722;2023-11-21T13:10:28;10.75;;;8.00;;
47669;SDS011;33408;52.062;11.722;2023-11-21T13:12:56;11.60;;;7.32;;
47669;SDS011;33408;52.062;11.722;2023-11-21T13:15:30;10.63;;;6.13;;
47669;SDS011;33408;52.062;11.722;2023-11-21T13:17:58;10.80;;;6.40;;
47669;SDS011;33408;52.062;11.722;2023-11-21T13:20:25;7.93;;;5.35;;
47669;SDS011;33408;52.062;11.722;2023-11-21T13:22:53;8.23;;;5.25;;
47669;SDS011;33408;52.062;11.722;2023-11-21T13:25:23;9.07;;;6.25;;
47669;SDS011;33408;52.062;11.722;2023-11-21T13:27:52;8.98;;;5.50;;
47669;SDS011;33408;52.062;11.722;2023-11-21T13:30:19;8.48;;;5.68;;
47669;SDS011;33408;52.062;11.722;2023-11-21T13:32:50;9.18;;;6.32;;
47669;SDS011;33408;52.062;11.722;2023-11-21T13:35:19;7.63;;;5.20;;
47669;SDS011;33408;52.062;11.722;2023-11-21T13:37:56;7.65;;;5.07;;
47669;SDS011;33408;52.062;11.722;2023-11-21T13:40:26;9.15;;;4.30;;
47669;SDS011;33408;52.062;11.722;2023-11-21T13:42:53;7.82;;;5.45;;
47669;SDS011;33408;52.062;11.722;2023-11-21T13:45:22;10.73;;;5.55;;
47669;SDS011;33408;52.062;11.722;2023-11-21T13:47:50;6.85;;;4.00;;
47669;SDS011;33408;52.062;11.722;2023-11-21T13:50:23;9.85;;;5.68;;
47669;SDS011;33408;52.062;11.722;2023-11-21T13:52:54;7.75;;;4.93;;
47669;SDS011;33408;52.062;11.722;2023-11-21T13:55:20;8.32;;;5.10;;
47669;SDS011;33408;52.062;11.722;2023-11-21T13:57:52;9.55;;;5.93;;
47669;SDS011;33408;52.062;11.722;2023-11-21T14:00:19;7.43;;;4.47;;
47669;SDS011;33408;52.062;11.722;2023-11-21T14:03:03;7.70;;;4.95;;
47669;SDS011;33408;52.062;11.722;2023-11-21T14:05:35;6.75;;;4.68;;
47669;SDS011;33408;52.062;11.722;2023-11-21T14:08:02;6.85;;;4.32;;
47669;SDS011;33408;52.062;11.722;2023-11-21T14:10:30;8.80;;;4.60;;
47669;SDS011;33408;52.062;11.722;2023-11-21T14:13:06;7.82;;;4.80;;
47669;SDS011;33408;52.062;11.722;2023-11-21T14:15:33;10.75;;;6.45;;
47669;SDS011;33408;52.062;11.722;2023-11-21T14:18:03;7.50;;;4.68;;
47669;SDS011;33408;52.062;11.722;2023-11-21T14:20:33;7.45;;;4.80;;
47669;SDS011;33408;52.062;11.722;2023-11-21T14:23:01;7.88;;;4.57;;